createdAt,value
2016-03-25T00:00:45.966Z,20.36
2016-03-25T00:01:45.969Z,20.28
2016-03-25T00:02:45.987Z,20.36
2016-03-25T00:03:45.989Z,20.46
2016-03-25T00:04:45.991Z,20.17
2016-03-25T00:05:45.994Z,20.36
2016-03-25T00:06:46.005Z,20.17
2016-03-25T00:07:46.007Z,20.18
2016-03-25T00:08:46.509Z,20.26
2016-03-25T00:09:46.012Z,20.36
2016-03-25T00:10:46.046Z,20.46
2016-03-25T00:11:46.081Z,20.36
2016-03-25T00:12:46.051Z,20.26
2016-03-25T00:13:46.054Z,20.56
2016-03-25T00:14:46.057Z,20.36
2016-03-25T00:15:46.059Z,20.36
2016-03-25T00:16:46.062Z,20.36
2016-03-25T00:17:46.065Z,20.46
2016-03-25T00:18:46.083Z,20.26
2016-03-25T00:19:46.086Z,20.36
2016-03-25T00:20:46.105Z,20.56
2016-03-25T00:21:46.091Z,20.17
2016-03-25T00:22:46.110Z,20.56
2016-03-25T00:23:46.097Z,20.17
2016-03-25T00:24:46.130Z,20.46
2016-03-25T00:25:46.118Z,20.36
2016-03-25T00:26:46.183Z,20.56
2016-03-25T00:27:46.138Z,20.56
2016-03-25T00:28:46.142Z,20.36
2016-03-25T00:29:46.144Z,20.26
2016-03-25T00:30:46.146Z,19.98
2016-03-25T00:31:46.165Z,20.36
2016-03-25T00:32:46.168Z,20.07
2016-03-25T00:33:46.171Z,19.98
2016-03-25T00:34:46.190Z,20.46
2016-03-25T00:35:46.176Z,20.36
2016-03-25T00:36:46.195Z,20.56
2016-03-25T00:37:46.197Z,20.46
2016-03-25T00:38:46.200Z,20.56
2016-03-25T00:39:46.218Z,20.46
2016-03-25T00:40:46.220Z,20.65
2016-03-25T00:41:46.223Z,20.36
2016-03-25T00:42:46.226Z,20.36
2016-03-25T00:43:46.244Z,20.46
2016-03-25T00:44:46.248Z,20.17
2016-03-25T00:45:46.250Z,20.36
2016-03-25T00:46:46.252Z,20.26
2016-03-25T00:47:46.256Z,20.07
2016-03-25T00:48:46.258Z,20.07
2016-03-25T00:49:46.291Z,19.98
2016-03-25T00:50:46.279Z,20.17
2016-03-25T00:51:46.297Z,19.98
2016-03-25T00:52:46.284Z,19.98
2016-03-25T00:53:46.303Z,20.07
2016-03-25T00:54:46.305Z,19.98
2016-03-25T00:55:46.308Z,19.98
2016-03-25T00:56:46.326Z,20.07
2016-03-25T00:57:46.329Z,19.88
2016-03-25T00:58:46.331Z,19.88
2016-03-25T00:59:46.335Z,19.88
2016-03-25T01:00:46.352Z,20.17
2016-03-25T01:01:46.340Z,20.07
2016-03-25T01:02:46.343Z,19.98
2016-03-25T01:03:46.361Z,19.98
2016-03-25T01:04:46.363Z,20.07
2016-03-25T01:05:46.366Z,20.17
2016-03-25T01:06:46.385Z,19.98
2016-03-25T01:07:46.403Z,20.17
2016-03-25T01:08:46.390Z,20.17
2016-03-25T01:09:46.393Z,20.26
2016-03-25T01:10:46.395Z,20.26
2016-03-25T01:11:46.414Z,19.98
2016-03-25T01:12:46.416Z,19.98
2016-03-25T01:13:46.419Z,20.46
2016-03-25T01:14:46.422Z,19.98
2016-03-25T01:15:46.440Z,19.98
2016-03-25T01:16:46.443Z,19.98
2016-03-25T01:17:46.445Z,20.07
2016-03-25T01:18:46.464Z,20.17
2016-03-25T01:19:46.451Z,20.17
2016-03-25T01:20:46.469Z,19.78
2016-03-25T01:21:46.472Z,19.88
2016-03-25T01:22:46.489Z,20.07
2016-03-25T01:23:46.477Z,20.07
2016-03-25T01:24:46.495Z,19.98
2016-03-25T01:25:46.483Z,20.17
2016-03-25T01:26:46.516Z,20.17
2016-03-25T01:27:46.503Z,20.17
2016-03-25T01:28:46.505Z,19.98
2016-03-25T01:29:46.525Z,19.98
2016-03-25T01:30:46.527Z,19.98
2016-03-25T01:31:46.530Z,20.07
2016-03-25T01:32:46.532Z,20.07
2016-03-25T01:33:46.535Z,19.88
2016-03-25T01:34:46.554Z,19.98
2016-03-25T01:35:46.557Z,20.07
2016-03-25T01:36:46.559Z,19.98
2016-03-25T01:37:46.577Z,20.07
2016-03-25T01:38:46.579Z,20.07
2016-03-25T01:39:46.582Z,19.98
2016-03-25T01:40:46.585Z,20.17
2016-03-25T01:41:46.588Z,20.07
2016-03-25T01:42:46.606Z,19.88
2016-03-25T01:43:46.609Z,20.17
2016-03-25T01:44:46.612Z,19.88
2016-03-25T01:45:46.614Z,19.98
2016-03-25T01:46:46.633Z,19.88
2016-03-25T01:47:46.636Z,19.98
2016-03-25T01:48:46.653Z,19.68
2016-03-25T01:49:46.641Z,19.78
2016-03-25T01:50:46.644Z,19.78
2016-03-25T01:51:46.646Z,19.98
2016-03-25T01:52:46.664Z,19.98
2016-03-25T01:53:46.667Z,19.98
2016-03-25T01:54:46.685Z,19.88
2016-03-25T01:55:46.672Z,19.78
2016-03-25T01:56:53.456Z,19.88
2016-03-25T01:57:46.694Z,19.98
2016-03-25T01:58:46.696Z,19.68
2016-03-25T01:59:46.730Z,19.88
2016-03-25T02:00:46.702Z,19.68
2016-03-25T02:01:46.752Z,20.07
2016-03-25T02:02:46.722Z,19.88
2016-03-25T02:03:46.724Z,19.68
2016-03-25T02:04:46.743Z,19.68
2016-03-25T02:05:46.746Z,19.98
2016-03-25T02:06:46.749Z,19.88
2016-03-25T02:07:46.751Z,19.98
2016-03-25T02:08:46.754Z,19.98
2016-03-25T02:09:46.757Z,19.78
2016-03-25T02:10:46.759Z,19.78
2016-03-25T02:11:46.778Z,19.88
2016-03-25T02:12:46.781Z,19.78
2016-03-25T02:13:46.783Z,20.07
2016-03-25T02:14:46.802Z,19.98
2016-03-25T02:15:46.789Z,19.98
2016-03-25T02:16:46.806Z,19.88
2016-03-25T02:17:46.810Z,19.98
2016-03-25T02:18:46.812Z,19.98
2016-03-25T02:19:46.830Z,19.78
2016-03-25T02:20:46.834Z,19.98
2016-03-25T02:21:46.836Z,19.98
2016-03-25T02:22:46.839Z,19.88
2016-03-25T02:23:46.841Z,19.88
2016-03-25T02:24:46.860Z,19.78
2016-03-25T02:25:46.863Z,19.78
2016-03-25T02:26:46.865Z,19.88
2016-03-25T02:27:46.868Z,20.07
2016-03-25T02:28:46.885Z,20.07
2016-03-25T02:29:46.873Z,19.88
2016-03-25T02:30:46.892Z,19.88
2016-03-25T02:31:46.894Z,19.98
2016-03-25T02:32:46.896Z,19.88
2016-03-25T02:33:46.900Z,19.98
2016-03-25T02:34:46.918Z,19.98
2016-03-25T02:35:46.920Z,19.88
2016-03-25T02:36:46.923Z,20.07
2016-03-25T02:37:46.926Z,20.17
2016-03-25T02:38:46.929Z,20.17
2016-03-25T02:39:46.947Z,19.88
2016-03-25T02:40:46.965Z,19.88
2016-03-25T02:41:46.952Z,20.07
2016-03-25T02:42:46.971Z,19.88
2016-03-25T02:43:46.973Z,19.98
2016-03-25T02:44:46.975Z,19.59
2016-03-25T02:45:46.978Z,19.88
2016-03-25T02:46:47.004Z,19.88
2016-03-25T02:47:46.961Z,19.88
2016-03-25T02:48:46.949Z,19.78
2016-03-25T02:49:46.967Z,20.07
2016-03-25T02:50:46.940Z,19.88
2016-03-25T02:51:46.933Z,19.78
2016-03-25T02:52:46.930Z,19.88
2016-03-25T02:53:46.959Z,19.98
2016-03-25T02:54:46.956Z,19.88
2016-03-25T02:55:46.938Z,19.98
2016-03-25T02:56:46.936Z,19.88
2016-03-25T02:57:46.953Z,19.68
2016-03-25T02:58:46.938Z,19.98
2016-03-25T02:59:46.955Z,20.07
2016-03-25T03:00:46.955Z,20.07
2016-03-25T03:01:46.957Z,19.88
2016-03-25T03:02:46.975Z,19.98
2016-03-25T03:03:46.977Z,20.07
2016-03-25T03:04:46.994Z,20.07
2016-03-25T03:05:46.980Z,20.07
2016-03-25T03:06:46.982Z,19.98
2016-03-25T03:07:47.000Z,20.07
2016-03-25T03:08:47.002Z,19.98
2016-03-25T03:09:47.004Z,19.88
2016-03-25T03:10:47.007Z,19.98
2016-03-25T03:11:46.853Z,20.07
2016-03-25T03:12:47.028Z,20.07
2016-03-25T03:13:47.031Z,19.88
2016-03-25T03:14:47.033Z,19.88
2016-03-25T03:15:47.083Z,20.17
2016-03-25T03:16:47.054Z,20.07
2016-03-25T03:17:47.056Z,20.17
2016-03-25T03:18:47.044Z,19.78
2016-03-25T03:19:47.062Z,19.78
2016-03-25T03:20:47.065Z,19.98
2016-03-25T03:21:47.067Z,19.98
2016-03-25T03:22:47.070Z,19.88
2016-03-25T03:23:47.105Z,20.07
2016-03-25T03:24:47.091Z,20.07
2016-03-25T03:25:47.110Z,20.07
2016-03-25T03:26:47.097Z,19.98
2016-03-25T03:27:47.115Z,19.88
2016-03-25T03:28:47.134Z,20.07
2016-03-25T03:29:47.137Z,20.07
2016-03-25T03:30:47.124Z,20.07
2016-03-25T03:31:47.142Z,19.98
2016-03-25T03:32:47.130Z,20.07
2016-03-25T03:33:47.147Z,20.17
2016-03-25T03:34:47.166Z,19.98
2016-03-25T03:35:47.153Z,19.78
2016-03-25T03:36:47.155Z,19.88
2016-03-25T03:37:47.175Z,19.88
2016-03-25T03:38:47.177Z,19.98
2016-03-25T03:39:47.179Z,19.88
2016-03-25T03:40:47.183Z,19.88
2016-03-25T03:41:47.185Z,19.88
2016-03-25T03:42:47.203Z,19.98
2016-03-25T03:43:47.207Z,19.98
2016-03-25T03:44:47.209Z,19.68
2016-03-25T03:45:47.227Z,19.98
2016-03-25T03:46:47.215Z,19.88
2016-03-25T03:47:47.217Z,20.07
2016-03-25T03:48:47.235Z,20.17
2016-03-25T03:49:47.222Z,19.88
2016-03-25T03:50:47.256Z,20.17
2016-03-25T03:51:47.259Z,19.88
2016-03-25T03:52:47.261Z,19.88
2016-03-25T03:53:47.265Z,19.98
2016-03-25T03:54:47.267Z,19.68
2016-03-25T03:55:47.269Z,19.78
2016-03-25T03:56:47.288Z,19.88
2016-03-25T03:57:47.337Z,20.07
2016-03-25T03:58:47.278Z,19.88
2016-03-25T03:59:47.295Z,19.88
2016-03-25T04:00:47.298Z,19.98
2016-03-25T04:01:47.317Z,19.98
2016-03-25T04:02:47.303Z,19.78
2016-03-25T04:03:47.322Z,19.68
2016-03-25T04:04:47.325Z,19.68
2016-03-25T04:05:47.328Z,19.98
2016-03-25T04:06:47.330Z,19.98
2016-03-25T04:07:47.332Z,19.78
2016-03-25T04:08:47.352Z,19.78
2016-03-25T04:09:47.354Z,19.88
2016-03-25T04:10:47.357Z,19.88
2016-03-25T04:11:47.375Z,19.88
2016-03-25T04:12:47.362Z,19.88
2016-03-25T04:13:47.380Z,20.07
2016-03-25T04:14:47.383Z,20.17
2016-03-25T04:15:47.385Z,19.88
2016-03-25T04:16:47.404Z,19.98
2016-03-25T04:17:47.407Z,20.06
2016-03-25T04:18:47.410Z,20.07
2016-03-25T04:19:47.412Z,20.07
2016-03-25T04:20:47.431Z,20.06
2016-03-25T04:21:47.417Z,19.98
2016-03-25T04:22:47.437Z,19.98
2016-03-25T04:23:47.439Z,20.16
2016-03-25T04:24:47.441Z,20.07
2016-03-25T04:25:47.444Z,20.07
2016-03-25T04:26:47.447Z,19.88
2016-03-25T04:27:47.450Z,20.17
2016-03-25T04:28:47.467Z,19.88
2016-03-25T04:29:47.470Z,19.78
2016-03-25T04:30:47.489Z,20.07
2016-03-25T04:31:47.475Z,20.17
2016-03-25T04:32:47.494Z,20.07
2016-03-25T04:33:47.497Z,19.78
2016-03-25T04:34:47.499Z,19.78
2016-03-25T04:35:47.503Z,20.07
2016-03-25T04:36:47.364Z,19.88
2016-03-25T04:37:47.522Z,19.88
2016-03-25T04:38:47.526Z,19.78
2016-03-25T04:39:47.544Z,20.17
2016-03-25T04:40:47.546Z,19.98
2016-03-25T04:41:47.549Z,20.07
2016-03-25T04:42:47.568Z,20.16
2016-03-25T04:43:47.555Z,19.96
2016-03-25T04:44:47.558Z,20.16
2016-03-25T04:45:47.560Z,20.17
2016-03-25T04:46:47.593Z,20.07
2016-03-25T04:47:47.566Z,19.88
2016-03-25T04:48:47.584Z,19.88
2016-03-25T04:49:47.586Z,20.07
2016-03-25T04:50:47.605Z,20.07
2016-03-25T04:51:47.592Z,20.07
2016-03-25T04:52:47.610Z,20.07
2016-03-25T04:53:47.613Z,19.88
2016-03-25T04:54:47.631Z,20.07
2016-03-25T04:55:47.618Z,20.07
2016-03-25T04:56:47.652Z,19.78
2016-03-25T04:57:47.640Z,19.88
2016-03-25T04:58:47.642Z,19.78
2016-03-25T04:59:47.645Z,19.98
2016-03-25T05:00:47.648Z,19.88
2016-03-25T05:01:47.666Z,19.88
2016-03-25T05:02:47.669Z,19.87
2016-03-25T05:03:47.671Z,20.07
2016-03-25T05:04:47.674Z,20.07
2016-03-25T05:05:47.691Z,20.17
2016-03-25T05:06:47.694Z,19.88
2016-03-25T05:07:47.699Z,20.07
2016-03-25T05:08:47.702Z,19.96
2016-03-25T05:09:47.704Z,19.96
2016-03-25T05:10:47.707Z,20.07
2016-03-25T05:11:47.725Z,20.07
2016-03-25T05:12:47.728Z,20.16
2016-03-25T05:13:47.731Z,20.17
2016-03-25T05:14:47.733Z,20.07
2016-03-25T05:15:47.736Z,20.07
2016-03-25T05:16:47.753Z,20.07
2016-03-25T05:17:47.756Z,19.88
2016-03-25T05:18:47.006Z,19.87
2016-03-25T05:19:47.759Z,20.17
2016-03-25T05:20:47.761Z,19.98
2016-03-25T05:21:47.780Z,19.87
2016-03-25T05:22:47.783Z,20.36
2016-03-25T05:23:47.785Z,20.17
2016-03-25T05:24:47.788Z,20.07
2016-03-25T05:25:47.791Z,19.87
2016-03-25T05:26:47.810Z,19.88
2016-03-25T05:27:47.812Z,20.16
2016-03-25T05:28:47.815Z,20.07
2016-03-25T05:29:47.818Z,19.98
2016-03-25T05:30:47.821Z,20.07
2016-03-25T05:31:47.838Z,20.17
2016-03-25T05:32:47.826Z,19.98
2016-03-25T05:33:47.844Z,19.98
2016-03-25T05:34:47.846Z,19.98
2016-03-25T05:35:47.849Z,20.35
2016-03-25T05:36:47.867Z,20.35
2016-03-25T05:37:47.871Z,20.25
2016-03-25T05:38:47.873Z,20.54
2016-03-25T05:39:47.891Z,19.98
2016-03-25T05:40:47.879Z,20.26
2016-03-25T05:41:47.912Z,20.36
2016-03-25T05:42:47.899Z,20.17
2016-03-25T05:43:47.918Z,20.16
2016-03-25T05:44:47.902Z,20.17
2016-03-25T05:45:47.905Z,19.98
2016-03-25T05:46:47.923Z,20.07
2016-03-25T05:47:47.925Z,20.36
2016-03-25T05:48:47.928Z,20.36
2016-03-25T05:49:47.930Z,20.45
2016-03-25T05:50:47.934Z,20.56
2016-03-25T05:51:47.952Z,20.46
2016-03-25T05:52:47.954Z,20.56
2016-03-25T05:53:47.958Z,20.56
2016-03-25T05:54:47.960Z,20.46
2016-03-25T05:55:47.962Z,19.88
2016-03-25T05:56:47.966Z,20.54
2016-03-25T05:57:47.973Z,20.45
2016-03-25T05:58:47.991Z,20.46
2016-03-25T05:59:47.994Z,20.46
2016-03-25T06:00:47.996Z,20.25
2016-03-25T06:01:48.014Z,20.06
2016-03-25T06:02:48.018Z,19.96
2016-03-25T06:03:48.020Z,19.96
2016-03-25T06:04:48.007Z,20.17
2016-03-25T06:05:48.042Z,20.06
2016-03-25T06:06:47.872Z,20.16
2016-03-25T06:07:48.047Z,20.45
2016-03-25T06:08:48.050Z,20.35
2016-03-25T06:09:48.052Z,20.25
2016-03-25T06:10:48.055Z,20.45
2016-03-25T06:11:48.058Z,20.25
2016-03-25T06:12:48.075Z,20.25
2016-03-25T06:13:48.079Z,20.46
2016-03-25T06:14:48.081Z,20.35
2016-03-25T06:15:48.083Z,20.36
2016-03-25T06:16:48.087Z,20.07
2016-03-25T06:17:48.105Z,20.35
2016-03-25T06:18:48.091Z,20.36
2016-03-25T06:19:48.110Z,20.36
2016-03-25T06:20:48.113Z,20.26
2016-03-25T06:21:48.116Z,20.26
2016-03-25T06:22:48.133Z,20.36
2016-03-25T06:23:48.136Z,20.36
2016-03-25T06:24:48.139Z,20.17
2016-03-25T06:25:48.141Z,20.25
2016-03-25T06:26:48.144Z,20.17
2016-03-25T06:27:48.147Z,20.36
2016-03-25T06:28:48.165Z,20.16
2016-03-25T06:29:48.168Z,20.17
2016-03-25T06:30:48.171Z,20.36
2016-03-25T06:31:48.173Z,20.36
2016-03-25T06:32:48.192Z,20.46
2016-03-25T06:33:48.179Z,20.36
2016-03-25T06:34:48.198Z,20.17
2016-03-25T06:35:48.201Z,20.46
2016-03-25T06:36:48.203Z,20.36
2016-03-25T06:37:48.206Z,20.26
2016-03-25T06:38:48.224Z,20.25
2016-03-25T06:39:48.226Z,20.17
2016-03-25T06:40:48.228Z,20.26
2016-03-25T06:41:48.232Z,20.17
2016-03-25T06:42:48.250Z,20.36
2016-03-25T06:43:48.236Z,20.25
2016-03-25T06:44:48.256Z,20.26
2016-03-25T06:45:48.258Z,20.16
2016-03-25T06:46:48.261Z,20.17
2016-03-25T06:47:48.264Z,20.36
2016-03-25T06:48:48.266Z,20.36
2016-03-25T06:49:48.285Z,20.26
2016-03-25T06:50:48.288Z,20.36
2016-03-25T06:51:48.290Z,20.36
2016-03-25T06:52:48.293Z,20.46
2016-03-25T06:53:48.296Z,20.17
2016-03-25T06:54:48.313Z,20.17
2016-03-25T06:55:48.317Z,20.36
2016-03-25T06:56:48.319Z,20.36
2016-03-25T06:57:48.321Z,20.17
2016-03-25T06:58:48.324Z,20.54
2016-03-25T06:59:48.327Z,20.65
2016-03-25T07:00:48.345Z,20.46
2016-03-25T07:01:48.348Z,20.36
2016-03-25T07:02:48.366Z,20.46
2016-03-25T07:03:48.354Z,20.36
2016-03-25T07:04:48.371Z,20.36
2016-03-25T07:05:48.374Z,20.07
2016-03-25T07:06:48.408Z,20.17
2016-03-25T07:07:48.379Z,20.07
2016-03-25T07:08:48.382Z,20.06
2016-03-25T07:09:48.401Z,20.25
2016-03-25T07:10:48.403Z,20.35
2016-03-25T07:11:48.407Z,20.36
2016-03-25T07:12:48.409Z,20.36
2016-03-25T07:13:48.427Z,20.36
2016-03-25T07:14:48.414Z,20.26
2016-03-25T07:15:48.433Z,20.16
2016-03-25T07:16:48.435Z,20.54
2016-03-25T07:17:48.438Z,20.16
2016-03-25T07:18:48.441Z,20.25
2016-03-25T07:19:48.443Z,20.36
2016-03-25T07:20:48.478Z,20.46
2016-03-25T07:21:48.464Z,20.07
2016-03-25T07:22:48.466Z,20.25
2016-03-25T07:23:48.548Z,20.36
2016-03-25T07:24:48.472Z,20.25
2016-03-25T07:25:48.537Z,20.36
2016-03-25T07:26:48.493Z,20.36
2016-03-25T07:27:48.496Z,20.07
2016-03-25T07:28:48.499Z,20.36
2016-03-25T07:29:48.533Z,20.17
2016-03-25T07:30:48.521Z,19.78
2016-03-25T07:31:48.523Z,19.88
2016-03-25T07:32:48.526Z,19.78
2016-03-25T07:33:48.543Z,19.6
2016-03-25T07:34:48.546Z,19.02
2016-03-25T07:35:48.548Z,19.12
2016-03-25T07:36:48.552Z,18.55
2016-03-25T07:37:48.554Z,18.74
2016-03-25T07:38:48.604Z,18.64
2016-03-25T07:39:48.576Z,18.45
2016-03-25T07:40:48.578Z,18.06
2016-03-25T07:41:48.580Z,18.55
2016-03-25T07:42:48.584Z,18.07
2016-03-25T07:43:48.601Z,18.17
2016-03-25T07:44:48.604Z,18.07
2016-03-25T07:45:48.607Z,17.97
2016-03-25T07:46:48.610Z,18.07
2016-03-25T07:47:48.612Z,18.17
2016-03-25T07:48:48.631Z,17.6
2016-03-25T07:49:48.634Z,17.69
2016-03-25T07:50:48.652Z,17.88
2016-03-25T07:51:48.639Z,17.89
2016-03-25T07:52:48.641Z,17.6
2016-03-25T07:53:48.738Z,17.69
2016-03-25T07:54:48.678Z,17.69
2016-03-25T07:55:48.666Z,17.79
2016-03-25T07:56:48.668Z,17.79
2016-03-25T07:57:48.685Z,17.6
2016-03-25T07:58:48.688Z,17.5
2016-03-25T07:59:48.692Z,17.11
2016-03-25T08:00:48.694Z,16.92
2016-03-25T08:01:48.696Z,17.11
2016-03-25T08:02:48.732Z,17.4
2016-03-25T08:03:48.718Z,16.92
2016-03-25T08:04:48.720Z,16.82
2016-03-25T08:05:48.739Z,16.92
2016-03-25T08:06:48.742Z,16.92
2016-03-25T08:07:48.745Z,17.11
2016-03-25T08:08:48.762Z,17.11
2016-03-25T08:09:48.750Z,17.4
2016-03-25T08:10:48.753Z,17.02
2016-03-25T08:11:48.770Z,17.31
2016-03-25T08:12:48.773Z,17.11
2016-03-25T08:13:48.792Z,17.11
2016-03-25T08:14:48.778Z,17.31
2016-03-25T08:15:48.797Z,17.4
2016-03-25T08:16:48.800Z,17.4
2016-03-25T08:17:48.803Z,17.21
2016-03-25T08:18:48.820Z,17.4
2016-03-25T08:19:48.808Z,17.31
2016-03-25T08:20:48.826Z,17.21
2016-03-25T08:21:48.828Z,17.11
2016-03-25T08:22:48.847Z,17.21
2016-03-25T08:23:48.850Z,17.21
2016-03-25T08:24:48.852Z,17.11
2016-03-25T08:25:48.871Z,17.11
2016-03-25T08:26:48.874Z,17.4
2016-03-25T08:27:48.876Z,17.4
2016-03-25T08:28:48.879Z,17.11
2016-03-25T08:29:48.882Z,16.92
2016-03-25T08:30:49.024Z,17.6
2016-03-25T08:31:48.903Z,17.02
2016-03-25T08:32:48.905Z,17.02
2016-03-25T08:33:48.924Z,16.92
2016-03-25T08:34:48.927Z,17.11
2016-03-25T08:35:48.929Z,16.93
2016-03-25T08:36:48.932Z,17.4
2016-03-25T08:37:48.934Z,17.02
2016-03-25T08:38:48.937Z,16.92
2016-03-25T08:39:48.955Z,17.02
2016-03-25T08:40:48.958Z,16.92
2016-03-25T08:41:48.976Z,16.92
2016-03-25T08:42:48.979Z,17.02
2016-03-25T08:43:48.982Z,17.02
2016-03-25T08:44:49.000Z,17.02
2016-03-25T08:45:49.003Z,16.93
2016-03-25T08:46:49.006Z,17.21
2016-03-25T08:47:49.008Z,17.02
2016-03-25T08:48:49.011Z,17.31
2016-03-25T08:49:49.029Z,17.12
2016-03-25T08:50:49.032Z,17.4
2016-03-25T08:51:49.035Z,17.02
2016-03-25T08:52:49.053Z,16.92
2016-03-25T08:53:49.040Z,16.93
2016-03-25T08:54:49.058Z,17.6
2016-03-25T08:55:49.061Z,17.02
2016-03-25T08:56:49.080Z,17.5
2016-03-25T08:57:49.066Z,17.7
2016-03-25T08:58:49.085Z,17.4
2016-03-25T08:59:49.087Z,17.4
2016-03-25T09:00:49.105Z,17.4
2016-03-25T09:01:49.108Z,17.4
2016-03-25T09:02:49.111Z,17.6
2016-03-25T09:03:49.114Z,17.02
2016-03-25T09:04:49.116Z,17.6
2016-03-25T09:05:49.134Z,17.6
2016-03-25T09:06:49.137Z,17.6
2016-03-25T09:07:49.156Z,16.92
2016-03-25T09:08:49.142Z,17.02
2016-03-25T09:09:49.161Z,17.69
2016-03-25T09:10:49.164Z,17.5
2016-03-25T09:11:49.167Z,17.6
2016-03-25T09:12:49.184Z,17.6
2016-03-25T09:13:49.187Z,17.79
2016-03-25T09:14:49.206Z,17.4
2016-03-25T09:15:49.193Z,17.69
2016-03-25T09:16:49.211Z,17.4
2016-03-25T09:17:49.214Z,17.6
2016-03-25T09:18:49.232Z,17.4
2016-03-25T09:19:49.220Z,17.6
2016-03-25T09:20:49.222Z,17.6
2016-03-25T09:21:49.240Z,17.7
2016-03-25T09:22:49.243Z,17.69
2016-03-25T09:23:49.246Z,17.6
2016-03-25T09:24:49.264Z,17.7
2016-03-25T09:25:49.267Z,17.5
2016-03-25T09:26:49.286Z,17.6
2016-03-25T09:27:49.288Z,17.69
2016-03-25T09:28:49.275Z,17.6
2016-03-25T09:29:49.294Z,17.89
2016-03-25T09:30:49.296Z,17.79
2016-03-25T09:31:49.314Z,17.69
2016-03-25T09:32:49.333Z,17.79
2016-03-25T09:33:49.335Z,17.6
2016-03-25T09:34:49.322Z,17.89
2016-03-25T09:35:49.341Z,17.69
2016-03-25T09:36:49.343Z,17.6
2016-03-25T09:37:49.346Z,17.51
2016-03-25T09:38:49.365Z,17.4
2016-03-25T09:39:49.382Z,17.4
2016-03-25T09:40:49.370Z,17.79
2016-03-25T09:41:49.372Z,17.69
2016-03-25T09:42:49.391Z,17.8
2016-03-25T09:43:49.393Z,17.79
2016-03-25T09:44:49.396Z,17.79
2016-03-25T09:45:49.399Z,17.89
2016-03-25T09:46:49.401Z,17.89
2016-03-25T09:47:49.419Z,17.7
2016-03-25T09:48:49.422Z,17.7
2016-03-25T09:49:49.425Z,17.69
2016-03-25T09:50:49.443Z,17.9
2016-03-25T09:51:49.445Z,17.89
2016-03-25T09:52:49.449Z,17.79
2016-03-25T09:53:49.451Z,17.8
2016-03-25T09:54:49.453Z,17.79
2016-03-25T09:55:49.473Z,17.79
2016-03-25T09:56:49.475Z,17.79
2016-03-25T09:57:49.494Z,17.79
2016-03-25T09:58:49.496Z,17.8
2016-03-25T09:59:49.500Z,17.79
2016-03-25T10:00:49.502Z,17.89
2016-03-25T10:01:49.520Z,17.7
2016-03-25T10:02:49.508Z,17.51
2016-03-25T10:03:49.525Z,17.79
2016-03-25T10:04:49.528Z,17.9
2016-03-25T10:05:49.547Z,17.6
2016-03-25T10:06:49.549Z,17.8
2016-03-25T10:07:49.552Z,17.41
2016-03-25T10:08:49.554Z,17.99
2016-03-25T10:09:49.557Z,17.6
2016-03-25T10:10:49.576Z,17.9
2016-03-25T10:11:49.578Z,17.6
2016-03-25T10:12:49.596Z,17.9
2016-03-25T10:13:49.599Z,17.89
2016-03-25T10:14:49.602Z,17.89
2016-03-25T10:15:49.604Z,17.79
2016-03-25T10:16:49.622Z,17.98
2016-03-25T10:17:49.626Z,18.09
2016-03-25T10:18:49.628Z,17.69
2016-03-25T10:19:49.631Z,17.98
2016-03-25T10:20:49.649Z,18.08
2016-03-25T10:21:49.652Z,17.79
2016-03-25T10:22:49.654Z,17.79
2016-03-25T10:23:49.656Z,17.79
2016-03-25T10:24:49.676Z,17.79
2016-03-25T10:25:49.678Z,17.8
2016-03-25T10:26:49.681Z,17.9
2016-03-25T10:27:49.683Z,17.8
2016-03-25T10:28:49.702Z,17.79
2016-03-25T10:29:49.704Z,17.98
2016-03-25T10:30:49.707Z,17.7
2016-03-25T10:31:49.710Z,17.69
2016-03-25T10:32:49.713Z,17.98
2016-03-25T10:33:49.730Z,17.6
2016-03-25T10:34:49.733Z,17.79
2016-03-25T10:35:49.736Z,17.8
2016-03-25T10:36:49.754Z,17.51
2016-03-25T10:37:49.757Z,17.51
2016-03-25T10:38:49.776Z,17.7
2016-03-25T10:39:49.778Z,17.79
2016-03-25T10:40:49.781Z,17.6
2016-03-25T10:41:49.784Z,17.8
2016-03-25T10:42:49.786Z,17.7
2016-03-25T10:43:49.820Z,17.8
2016-03-25T10:44:49.807Z,17.8
2016-03-25T10:45:49.809Z,17.7
2016-03-25T10:46:49.828Z,17.7
2016-03-25T10:47:49.815Z,17.8
2016-03-25T10:48:49.834Z,17.9
2016-03-25T10:49:49.836Z,17.8
2016-03-25T10:50:49.839Z,17.8
2016-03-25T10:51:49.857Z,17.6
2016-03-25T10:52:49.859Z,17.51
2016-03-25T10:53:49.862Z,17.8
2016-03-25T10:54:49.881Z,17.7
2016-03-25T10:55:49.883Z,17.7
2016-03-25T10:56:49.886Z,17.8
2016-03-25T10:57:49.905Z,17.8
2016-03-25T10:58:49.907Z,17.9
2016-03-25T10:59:49.910Z,17.7
2016-03-25T11:00:49.913Z,17.7
2016-03-25T11:01:49.915Z,17.9
2016-03-25T11:02:49.933Z,17.7
2016-03-25T11:03:49.936Z,17.51
2016-03-25T11:04:49.939Z,17.98
2016-03-25T11:05:49.941Z,17.99
2016-03-25T11:06:49.960Z,17.51
2016-03-25T11:07:49.963Z,17.9
2016-03-25T11:08:49.965Z,17.7
2016-03-25T11:09:49.968Z,17.51
2016-03-25T11:10:49.987Z,18.09
2016-03-25T11:11:49.989Z,17.99
2016-03-25T11:12:49.992Z,17.6
2016-03-25T11:13:50.010Z,17.51
2016-03-25T11:14:50.012Z,17.6
2016-03-25T11:15:50.015Z,18.19
2016-03-25T11:16:50.034Z,18.37
2016-03-25T11:17:50.020Z,18.76
2016-03-25T11:18:50.039Z,19.24
2016-03-25T11:19:50.057Z,18.85
2016-03-25T11:20:50.045Z,19.34
2016-03-25T11:21:50.062Z,19.73
2016-03-25T11:22:50.065Z,18.95
2016-03-25T11:23:50.068Z,19.63
2016-03-25T11:24:50.087Z,19.71
2016-03-25T11:25:50.090Z,19.04
2016-03-25T11:26:50.092Z,19.63
2016-03-25T11:27:50.095Z,19.53
2016-03-25T11:28:50.114Z,19.15
2016-03-25T11:29:50.117Z,19.43
2016-03-25T11:30:50.119Z,19.73
2016-03-25T11:31:50.137Z,19.92
2016-03-25T11:32:50.140Z,19.82
2016-03-25T11:33:50.142Z,20.39
2016-03-25T11:34:50.145Z,19.82
2016-03-25T11:35:50.148Z,19.82
2016-03-25T11:36:50.182Z,19.92
2016-03-25T11:37:50.169Z,19.73
2016-03-25T11:38:50.172Z,19.73
2016-03-25T11:39:50.175Z,19.05
2016-03-25T11:40:50.180Z,19.92
2016-03-25T11:41:50.462Z,19.92
2016-03-25T11:42:50.197Z,20.01
2016-03-25T11:43:50.178Z,19.92
2016-03-25T11:44:50.211Z,20.01
2016-03-25T11:45:50.261Z,20.11
2016-03-25T11:46:50.216Z,20.4
2016-03-25T11:47:50.235Z,20.59
2016-03-25T11:48:50.237Z,20.4
2016-03-25T11:49:50.240Z,19.73
2016-03-25T11:50:50.259Z,20.01
2016-03-25T11:51:50.245Z,19.63
2016-03-25T11:52:50.264Z,19.82
2016-03-25T11:53:50.265Z,19.92
2016-03-25T11:54:50.335Z,20.01
2016-03-25T11:55:50.265Z,20.11
2016-03-25T11:56:50.256Z,19.73
2016-03-25T11:57:50.247Z,19.92
2016-03-25T11:58:50.245Z,19.92
2016-03-25T11:59:50.260Z,19.92
2016-03-25T12:00:50.258Z,19.92
2016-03-25T12:01:50.257Z,19.92
2016-03-25T12:02:50.255Z,19.92
2016-03-25T12:03:50.256Z,19.73
2016-03-25T12:04:50.273Z,19.82
2016-03-25T12:05:50.275Z,19.82
2016-03-25T12:06:50.276Z,19.73
2016-03-25T12:07:50.278Z,19.53
2016-03-25T12:08:50.295Z,20.31
2016-03-25T12:09:50.298Z,19.92
2016-03-25T12:10:50.315Z,19.82
2016-03-25T12:11:50.785Z,19.82
2016-03-25T12:12:50.303Z,19.82
2016-03-25T12:13:50.322Z,20.21
2016-03-25T12:14:50.325Z,20.21
2016-03-25T12:15:50.327Z,19.73
2016-03-25T12:16:50.345Z,19.43
2016-03-25T12:17:50.442Z,19.82
2016-03-25T12:18:50.350Z,19.53
2016-03-25T12:19:50.384Z,19.82
2016-03-25T12:20:50.372Z,19.63
2016-03-25T12:21:50.374Z,19.53
2016-03-25T12:22:50.425Z,19.43
2016-03-25T12:23:50.645Z,19.43
2016-03-25T12:24:50.398Z,19.73
2016-03-25T12:25:50.400Z,19.73
2016-03-25T12:26:50.435Z,20.01
2016-03-25T12:27:50.812Z,20.01
2016-03-25T12:28:50.424Z,20.01
2016-03-25T12:29:50.615Z,19.63
2016-03-25T12:30:50.445Z,19.63
2016-03-25T12:31:50.449Z,19.63
2016-03-25T12:32:50.435Z,19.73
2016-03-25T12:33:50.468Z,19.73
2016-03-25T12:34:50.472Z,19.63
2016-03-25T12:35:50.474Z,19.06
2016-03-25T12:36:50.493Z,19.54
2016-03-25T12:37:50.495Z,19.63
2016-03-25T12:38:50.498Z,19.63
2016-03-25T12:39:50.501Z,19.82
2016-03-25T12:40:50.504Z,19.73
2016-03-25T12:41:50.522Z,19.73
2016-03-25T12:42:50.525Z,18.96
2016-03-25T12:43:50.528Z,19.06
2016-03-25T12:44:50.530Z,19.73
2016-03-25T12:45:50.595Z,19.73
2016-03-25T12:46:50.550Z,19.15
2016-03-25T12:47:50.554Z,19.06
2016-03-25T12:48:50.556Z,19.64
2016-03-25T12:49:50.559Z,19.54
2016-03-25T12:50:50.561Z,19.06
2016-03-25T12:51:50.580Z,19.06
2016-03-25T12:52:50.661Z,19.06
2016-03-25T12:53:50.585Z,18.96
2016-03-25T12:54:50.478Z,19.15
2016-03-25T12:55:50.622Z,18.96